createdAt,value
2023-01-15T00:02:16.730Z,71.72
2023-01-15T00:04:43.939Z,71.22
2023-01-15T00:07:10.992Z,71.06
2023-01-15T00:09:38.041Z,72.06
2023-01-15T00:12:05.500Z,71.76
2023-01-15T00:14:32.517Z,70.81
2023-01-15T00:16:59.491Z,69.10
2023-01-15T00:19:26.462Z,68.43
2023-01-15T00:21:54.142Z,67.93
2023-01-15T00:24:40.014Z,68.79
2023-01-15T00:27:29.339Z,67.76
2023-01-15T00:29:56.351Z,69.72
2023-01-15T00:32:23.405Z,67.59
2023-01-15T00:34:50.488Z,68.59
2023-01-15T00:37:17.510Z,67.94
2023-01-15T00:39:44.636Z,68.20
2023-01-15T00:42:14.641Z,68.34
2023-01-15T00:44:41.668Z,68.92
2023-01-15T00:47:14.323Z,68.54
2023-01-15T00:49:42.296Z,69.22
2023-01-15T00:52:10.120Z,70.28
2023-01-15T00:54:37.184Z,69.44
2023-01-15T00:57:04.492Z,70.47
2023-01-15T00:59:31.547Z,67.63
2023-01-15T01:01:58.795Z,68.24
2023-01-15T01:04:26.014Z,67.58
2023-01-15T01:06:53.581Z,68.45
2023-01-15T01:09:20.557Z,69.36
2023-01-15T01:11:49.895Z,68.82
2023-01-15T01:14:16.924Z,67.80
2023-01-15T01:16:44.019Z,68.95
2023-01-15T01:19:17.570Z,69.49
2023-01-15T01:21:45.000Z,68.33
2023-01-15T01:24:15.615Z,68.57
2023-01-15T01:26:44.239Z,69.45
2023-01-15T01:29:17.381Z,70.49
2023-01-15T01:31:44.925Z,71.09
2023-01-15T01:34:13.349Z,70.09
2023-01-15T01:36:43.899Z,70.89
2023-01-15T01:39:17.694Z,69.65
2023-01-15T01:41:46.251Z,70.61
2023-01-15T01:44:34.953Z,69.89
2023-01-15T01:47:09.809Z,68.90
2023-01-15T01:49:40.221Z,69.23
2023-01-15T01:52:15.123Z,69.05
2023-01-15T01:54:43.633Z,70.59
2023-01-15T01:57:10.906Z,68.82
2023-01-15T01:59:39.413Z,67.47
2023-01-15T02:02:06.927Z,66.52
2023-01-15T02:04:34.855Z,68.04
2023-01-15T02:07:03.274Z,69.34
2023-01-15T02:09:30.299Z,70.51
2023-01-15T02:12:13.303Z,68.39
2023-01-15T02:15:01.288Z,68.73
2023-01-15T02:17:44.392Z,69.44
2023-01-15T02:20:32.284Z,69.22
2023-01-15T02:23:24.792Z,69.54
2023-01-15T02:26:07.420Z,68.40
2023-01-15T02:28:40.427Z,68.77
2023-01-15T02:31:43.229Z,68.19
2023-01-15T02:34:29.213Z,69.43
2023-01-15T02:37:09.563Z,69.51
2023-01-15T02:39:42.766Z,69.80
2023-01-15T02:42:12.974Z,70.55
2023-01-15T02:44:47.357Z,68.84
2023-01-15T02:47:17.162Z,68.05
2023-01-15T02:49:46.452Z,66.89
2023-01-15T02:52:35.433Z,67.78
2023-01-15T02:55:28.530Z,68.76
2023-01-15T02:58:01.540Z,69.36
2023-01-15T03:00:34.173Z,67.94
2023-01-15T03:03:22.117Z,65.79
2023-01-15T03:06:25.322Z,66.83
2023-01-15T03:08:52.601Z,68.02
2023-01-15T03:11:20.787Z,68.06
2023-01-15T03:14:09.236Z,68.37
2023-01-15T03:16:54.610Z,69.23
2023-01-15T03:19:39.175Z,68.31
2023-01-15T03:22:34.928Z,66.54
2023-01-15T03:25:26.303Z,68.55
2023-01-15T03:27:59.656Z,68.21
2023-01-15T03:30:27.215Z,68.58
2023-01-15T03:32:54.860Z,68.64
2023-01-15T03:35:49.217Z,68.83
2023-01-15T03:38:22.144Z,67.95
2023-01-15T03:40:58.715Z,68.03
2023-01-15T03:43:45.999Z,66.61
2023-01-15T03:46:41.518Z,68.52
2023-01-15T03:49:30.176Z,66.60
2023-01-15T03:52:14.451Z,65.62
2023-01-15T03:55:15.035Z,66.09
2023-01-15T03:58:11.965Z,66.91
2023-01-15T04:00:44.774Z,67.13
2023-01-15T04:03:13.787Z,67.25
2023-01-15T04:05:41.910Z,68.37
2023-01-15T04:08:10.172Z,68.09
2023-01-15T04:10:37.219Z,68.09
2023-01-15T04:13:04.541Z,67.43
2023-01-15T04:15:31.627Z,68.34
2023-01-15T04:17:58.731Z,69.05
2023-01-15T04:20:25.826Z,68.70
2023-01-15T04:22:52.840Z,68.07
2023-01-15T04:25:19.876Z,68.86
2023-01-15T04:27:46.935Z,67.15
2023-01-15T04:30:17.382Z,68.66
2023-01-15T04:32:44.365Z,66.99
2023-01-15T04:35:11.355Z,68.05
2023-01-15T04:37:38.345Z,67.47
2023-01-15T04:40:06.615Z,68.22
2023-01-15T04:42:52.226Z,67.50
2023-01-15T04:45:19.262Z,68.18
2023-01-15T04:47:46.232Z,67.83
2023-01-15T04:50:13.417Z,67.83
2023-01-15T04:52:40.466Z,67.51
2023-01-15T04:55:07.826Z,67.82
2023-01-15T04:57:35.456Z,66.74
2023-01-15T05:00:02.623Z,67.66
2023-01-15T05:02:29.730Z,67.78
2023-01-15T05:04:56.786Z,66.27
2023-01-15T05:07:23.806Z,65.89
2023-01-15T05:09:52.752Z,66.63
2023-01-15T05:12:19.746Z,65.80
2023-01-15T05:14:46.730Z,66.94
2023-01-15T05:17:13.739Z,65.88
2023-01-15T05:19:40.800Z,65.53
2023-01-15T05:22:08.263Z,66.84
2023-01-15T05:24:35.569Z,66.70
2023-01-15T05:27:05.249Z,67.13
2023-01-15T05:29:32.685Z,67.35
2023-01-15T05:31:59.839Z,65.04
2023-01-15T05:34:26.965Z,65.08
2023-01-15T05:36:54.092Z,66.19
2023-01-15T05:39:21.094Z,66.02
2023-01-15T05:41:51.135Z,65.34
2023-01-15T05:44:21.689Z,65.28
2023-01-15T05:46:50.354Z,65.82
2023-01-15T05:49:21.343Z,64.49
2023-01-15T05:51:49.096Z,64.78
2023-01-15T05:54:28.413Z,65.02
2023-01-15T05:56:56.089Z,65.05
2023-01-15T05:59:27.148Z,63.85
2023-01-15T06:01:55.631Z,64.28
2023-01-15T06:04:25.075Z,64.21
2023-01-15T06:06:54.281Z,65.70
2023-01-15T06:09:23.287Z,64.52
2023-01-15T06:11:50.930Z,65.39
2023-01-15T06:14:18.414Z,64.41
2023-01-15T06:16:45.811Z,65.63
2023-01-15T06:19:14.056Z,65.78
2023-01-15T06:21:41.460Z,66.83
2023-01-15T06:24:09.466Z,67.10
2023-01-15T06:26:37.818Z,66.65
2023-01-15T06:29:04.814Z,68.39
2023-01-15T06:31:32.687Z,67.49
2023-01-15T06:33:59.840Z,67.59
2023-01-15T06:36:28.281Z,67.05
2023-01-15T06:38:55.724Z,67.07
2023-01-15T06:41:44.382Z,66.39
2023-01-15T06:44:36.191Z,68.40
2023-01-15T06:47:20.884Z,69.36
2023-01-15T06:49:51.450Z,67.53
2023-01-15T06:52:18.643Z,68.03
2023-01-15T06:54:45.686Z,68.58
2023-01-15T06:57:12.752Z,69.24
2023-01-15T06:59:39.728Z,70.57
2023-01-15T07:02:06.908Z,70.02
2023-01-15T07:04:33.936Z,71.55
2023-01-15T07:07:00.945Z,70.72
2023-01-15T07:09:27.980Z,70.49
2023-01-15T07:11:55.127Z,70.50
2023-01-15T07:14:25.469Z,71.66
2023-01-15T07:16:52.860Z,72.66
2023-01-15T07:19:20.667Z,72.49
2023-01-15T07:21:49.024Z,72.05
2023-01-15T07:24:17.580Z,72.88
2023-01-15T07:26:45.842Z,72.12
2023-01-15T07:29:13.883Z,72.72
2023-01-15T07:31:41.516Z,71.59
2023-01-15T07:34:09.014Z,72.41
2023-01-15T07:36:36.823Z,72.28
2023-01-15T07:39:09.751Z,72.16
2023-01-15T07:41:56.154Z,74.45
2023-01-15T07:44:42.229Z,74.25
2023-01-15T07:47:37.462Z,74.51
2023-01-15T07:50:08.262Z,74.90
2023-01-15T07:52:35.448Z,73.64
2023-01-15T07:55:04.020Z,73.70
2023-01-15T07:57:31.272Z,73.78
2023-01-15T07:59:58.311Z,74.41
2023-01-15T08:02:25.340Z,74.18
2023-01-15T08:04:52.411Z,73.82
2023-01-15T08:07:19.614Z,73.14
2023-01-15T08:09:46.613Z,74.91
2023-01-15T08:12:32.465Z,75.24
2023-01-15T08:15:14.632Z,74.83
2023-01-15T08:17:47.299Z,74.03
2023-01-15T08:20:23.695Z,73.50
2023-01-15T08:22:50.812Z,73.35
2023-01-15T08:25:22.235Z,73.90
2023-01-15T08:27:49.653Z,74.68
2023-01-15T08:30:24.981Z,75.14
2023-01-15T08:32:52.756Z,76.63
2023-01-15T08:35:19.889Z,76.24
2023-01-15T08:37:46.924Z,75.87
2023-01-15T08:40:14.127Z,77.00
2023-01-15T08:42:41.317Z,77.59
2023-01-15T08:45:09.818Z,78.33
2023-01-15T08:47:37.621Z,77.14
2023-01-15T08:50:08.627Z,77.68
2023-01-15T08:52:35.904Z,76.78
2023-01-15T08:55:02.955Z,76.20
2023-01-15T08:57:29.978Z,76.70
2023-01-15T08:59:56.961Z,76.09
2023-01-15T09:02:24.039Z,76.06
2023-01-15T09:04:52.688Z,77.51
2023-01-15T09:07:20.081Z,78.28
2023-01-15T09:09:47.233Z,78.73
2023-01-15T09:12:14.357Z,79.74
2023-01-15T09:14:58.822Z,78.85
2023-01-15T09:17:28.924Z,79.52
2023-01-15T09:19:55.983Z,78.91
2023-01-15T09:22:22.996Z,77.85
2023-01-15T09:24:50.794Z,77.57
2023-01-15T09:27:17.921Z,79.01
2023-01-15T09:29:44.893Z,80.12
2023-01-15T09:32:11.900Z,80.58
2023-01-15T09:34:38.907Z,79.90
2023-01-15T09:37:05.999Z,80.29
2023-01-15T09:39:33.145Z,80.95
2023-01-15T09:42:27.179Z,79.67
2023-01-15T09:45:36.607Z,78.28
2023-01-15T09:48:19.452Z,79.16
2023-01-15T09:51:28.350Z,80.87
2023-01-15T09:54:16.796Z,80.20
2023-01-15T09:56:45.297Z,81.06
2023-01-15T09:59:34.950Z,80.48
2023-01-15T10:02:27.049Z,80.24
2023-01-15T10:05:21.581Z,81.92
2023-01-15T10:08:11.752Z,81.37
2023-01-15T10:10:50.754Z,81.70
2023-01-15T10:13:29.412Z,81.83
2023-01-15T10:15:58.428Z,81.87
2023-01-15T10:18:28.111Z,82.07
2023-01-15T10:21:18.726Z,83.22
2023-01-15T10:24:25.378Z,82.15
2023-01-15T10:26:58.045Z,82.11
2023-01-15T10:29:55.884Z,82.01
2023-01-15T10:33:01.524Z,82.31
2023-01-15T10:36:07.546Z,83.22
2023-01-15T10:39:10.375Z,82.95
2023-01-15T10:42:07.519Z,83.22
2023-01-15T10:45:12.834Z,81.99
2023-01-15T10:47:41.033Z,81.59
2023-01-15T10:50:27.153Z,81.70
2023-01-15T10:53:07.439Z,82.58
2023-01-15T10:55:44.771Z,82.68
2023-01-15T10:58:51.636Z,84.39
2023-01-15T11:01:23.622Z,84.19
2023-01-15T11:03:50.818Z,84.19
2023-01-15T11:06:21.309Z,84.55
2023-01-15T11:09:09.319Z,84.61
2023-01-15T11:12:00.836Z,84.68
2023-01-15T11:15:04.330Z,84.95
2023-01-15T11:18:02.833Z,85.77
2023-01-15T11:20:45.152Z,83.14
2023-01-15T11:23:16.719Z,82.55
2023-01-15T11:25:59.644Z,83.21
2023-01-15T11:28:43.206Z,82.90
2023-01-15T11:31:12.249Z,83.64
2023-01-15T11:33:40.409Z,82.68
2023-01-15T11:36:22.200Z,81.61
2023-01-15T11:38:51.409Z,79.97
2023-01-15T11:41:46.506Z,79.38
2023-01-15T11:44:33.930Z,80.76
2023-01-15T11:47:20.475Z,82.56
2023-01-15T11:50:13.551Z,82.66
2023-01-15T11:52:52.396Z,83.62
2023-01-15T11:55:23.674Z,84.80
2023-01-15T11:57:52.110Z,84.03
2023-01-15T12:00:28.243Z,84.47
2023-01-15T12:03:12.428Z,84.32
2023-01-15T12:05:54.201Z,84.15
2023-01-15T12:08:39.836Z,84.62
2023-01-15T12:11:51.390Z,84.88
2023-01-15T12:15:11.307Z,84.74
2023-01-15T12:18:06.375Z,85.03
2023-01-15T12:21:28.510Z,84.60
2023-01-15T12:24:29.425Z,84.17
2023-01-15T12:27:26.448Z,83.35
2023-01-15T12:30:53.045Z,83.64
2023-01-15T12:33:35.839Z,82.97
2023-01-15T12:36:23.805Z,82.83
2023-01-15T12:38:58.953Z,82.05
2023-01-15T12:41:53.826Z,82.38
2023-01-15T12:44:53.086Z,80.60
2023-01-15T12:47:28.505Z,80.66
2023-01-15T12:50:16.320Z,81.46
2023-01-15T12:52:46.522Z,80.33
2023-01-15T12:55:22.616Z,78.78
2023-01-15T12:57:55.631Z,79.45
2023-01-15T13:00:43.395Z,79.45
2023-01-15T13:03:34.768Z,77.79
2023-01-15T13:06:05.858Z,77.65
2023-01-15T13:08:38.173Z,76.69
2023-01-15T13:11:06.410Z,76.37
2023-01-15T13:13:39.137Z,75.97
2023-01-15T13:16:08.798Z,75.12
2023-01-15T13:18:50.478Z,74.49
2023-01-15T13:21:20.402Z,74.89
2023-01-15T13:24:41.477Z,71.86
2023-01-15T13:27:28.641Z,72.18
2023-01-15T13:30:14.453Z,71.38
2023-01-15T13:32:52.789Z,71.21
2023-01-15T13:35:46.797Z,70.48
2023-01-15T13:38:21.601Z,70.41
2023-01-15T13:40:53.312Z,69.16
2023-01-15T13:43:34.247Z,67.69
2023-01-15T13:46:04.345Z,68.47
2023-01-15T13:48:58.109Z,68.75
2023-01-15T13:51:32.442Z,68.13
2023-01-15T13:54:01.575Z,66.95
2023-01-15T13:56:32.386Z,68.16
2023-01-15T13:59:02.933Z,68.81
2023-01-15T14:01:37.408Z,68.09
2023-01-15T14:04:10.652Z,67.13
2023-01-15T14:06:49.254Z,67.88
2023-01-15T14:09:25.056Z,67.48
2023-01-15T14:12:07.002Z,67.85
2023-01-15T14:15:11.663Z,66.71
2023-01-15T14:18:09.673Z,65.79
2023-01-15T14:21:00.762Z,65.67
2023-01-15T14:24:05.237Z,66.49
2023-01-15T14:27:00.338Z,65.18
2023-01-15T14:29:53.231Z,66.67
2023-01-15T14:32:48.512Z,67.61
2023-01-15T14:35:22.776Z,65.16
2023-01-15T14:38:03.842Z,65.41
2023-01-15T14:40:34.904Z,65.81
2023-01-15T14:43:17.379Z,64.69
2023-01-15T14:45:48.622Z,64.57
2023-01-15T14:48:30.895Z,65.47
2023-01-15T14:51:30.623Z,64.47
2023-01-15T14:54:13.329Z,63.99
2023-01-15T14:56:50.729Z,65.20
2023-01-15T14:59:25.824Z,66.15
2023-01-15T15:02:02.566Z,66.54
2023-01-15T15:04:56.235Z,67.06
2023-01-15T15:07:27.230Z,67.18
2023-01-15T15:10:07.104Z,65.86
2023-01-15T15:13:07.759Z,65.90
2023-01-15T15:16:08.548Z,65.37
2023-01-15T15:18:47.859Z,65.25
2023-01-15T15:21:26.195Z,64.31
2023-01-15T15:24:32.897Z,66.35
2023-01-15T15:27:23.811Z,64.98
2023-01-15T15:29:50.858Z,65.48
2023-01-15T15:32:22.199Z,65.86
2023-01-15T15:34:53.092Z,66.68
2023-01-15T15:37:28.890Z,66.79
2023-01-15T15:40:31.334Z,66.05
2023-01-15T15:43:41.287Z,66.02
2023-01-15T15:46:47.062Z,65.73
2023-01-15T15:49:15.109Z,65.60
2023-01-15T15:51:49.318Z,66.11
2023-01-15T15:54:28.387Z,65.79
2023-01-15T15:57:22.365Z,66.26
2023-01-15T15:59:52.192Z,65.43
2023-01-15T16:02:38.088Z,66.12
2023-01-15T16:05:28.972Z,67.91
2023-01-15T16:07:56.117Z,68.52
2023-01-15T16:10:31.777Z,69.97
2023-01-15T16:13:04.461Z,69.68
2023-01-15T16:15:41.170Z,69.50
2023-01-15T16:18:23.791Z,70.38
2023-01-15T16:20:50.945Z,70.33
2023-01-15T16:23:30.497Z,71.13
2023-01-15T16:26:00.145Z,71.61
2023-01-15T16:28:35.973Z,71.31
2023-01-15T16:31:03.605Z,70.76
2023-01-15T16:33:31.190Z,71.72
2023-01-15T16:36:05.128Z,71.74
2023-01-15T16:38:41.917Z,73.02
2023-01-15T16:41:29.604Z,73.76
2023-01-15T16:44:01.402Z,74.94
2023-01-15T16:46:49.656Z,76.11
2023-01-15T16:49:25.400Z,77.64
2023-01-15T16:51:57.018Z,78.78
2023-01-15T16:54:29.909Z,80.10
2023-01-15T16:57:25.063Z,80.85
2023-01-15T16:59:59.791Z,81.24
2023-01-15T17:02:34.919Z,81.23
2023-01-15T17:05:13.994Z,82.07
2023-01-15T17:07:41.184Z,82.73
2023-01-15T17:10:28.163Z,83.74
2023-01-15T17:12:58.745Z,83.86
2023-01-15T17:15:25.657Z,84.10
2023-01-15T17:17:55.110Z,84.39
2023-01-15T17:20:28.027Z,84.88
2023-01-15T17:22:56.001Z,85.04
2023-01-15T17:25:35.204Z,85.49
2023-01-15T17:28:04.053Z,85.54
2023-01-15T17:30:33.234Z,85.50
2023-01-15T17:33:06.891Z,85.15
2023-01-15T17:35:37.646Z,85.22
2023-01-15T17:38:07.419Z,85.33
2023-01-15T17:40:34.627Z,85.14
2023-01-15T17:43:02.016Z,85.37
2023-01-15T17:45:32.134Z,86.17
2023-01-15T17:48:00.121Z,86.38
2023-01-15T17:50:28.425Z,86.65
2023-01-15T17:52:55.490Z,88.12
2023-01-15T17:55:42.526Z,88.68
2023-01-15T17:58:31.617Z,88.11
2023-01-15T18:01:17.437Z,88.92
2023-01-15T18:04:08.647Z,88.38
2023-01-15T18:06:36.136Z,89.69
2023-01-15T18:09:07.338Z,89.83
2023-01-15T18:11:34.457Z,89.96
2023-01-15T18:14:01.527Z,90.15
2023-01-15T18:16:28.846Z,90.44
2023-01-15T18:18:56.192Z,90.72
2023-01-15T18:21:23.346Z,91.07
2023-01-15T18:23:50.871Z,91.10
2023-01-15T18:26:17.957Z,91.41
2023-01-15T18:28:46.431Z,91.64
2023-01-15T18:31:13.898Z,92.34
2023-01-15T18:33:41.012Z,92.20
2023-01-15T18:36:13.488Z,92.80
2023-01-15T18:38:47.618Z,93.43
2023-01-15T18:41:36.595Z,93.14
2023-01-15T18:44:31.602Z,92.57
2023-01-15T18:47:02.547Z,92.94
2023-01-15T18:49:30.724Z,92.25
2023-01-15T18:52:16.533Z,92.73
2023-01-15T18:54:43.586Z,92.26
2023-01-15T18:57:10.704Z,92.13
2023-01-15T18:59:37.704Z,92.43
2023-01-15T19:02:05.561Z,91.65
2023-01-15T19:04:32.651Z,91.55
2023-01-15T19:06:59.958Z,91.53
2023-01-15T19:09:27.144Z,91.84
2023-01-15T19:11:54.649Z,92.33
2023-01-15T19:14:41.432Z,92.11
2023-01-15T19:17:39.054Z,92.28
2023-01-15T19:20:08.243Z,91.87
2023-01-15T19:22:53.813Z,92.29
2023-01-15T19:25:23.270Z,92.17
2023-01-15T19:27:51.100Z,92.42
2023-01-15T19:30:19.409Z,92.10
2023-01-15T19:32:46.532Z,92.83
2023-01-15T19:35:13.938Z,92.66
2023-01-15T19:37:41.722Z,92.61
2023-01-15T19:40:18.026Z,91.99
2023-01-15T19:43:04.008Z,92.30
2023-01-15T19:45:50.289Z,92.86
2023-01-15T19:48:37.597Z,93.18
2023-01-15T19:51:05.619Z,93.03
2023-01-15T19:53:37.315Z,92.85
2023-01-15T19:56:05.064Z,93.13
2023-01-15T19:58:34.167Z,93.34
2023-01-15T20:01:02.312Z,93.26
2023-01-15T20:03:30.172Z,93.16
2023-01-15T20:05:57.679Z,93.30
2023-01-15T20:08:24.785Z,93.00
2023-01-15T20:10:51.983Z,92.79
2023-01-15T20:13:41.285Z,92.80
2023-01-15T20:16:19.893Z,93.14
2023-01-15T20:18:51.296Z,92.71
2023-01-15T20:21:19.003Z,92.87
2023-01-15T20:23:46.091Z,92.29
2023-01-15T20:26:14.818Z,92.46
2023-01-15T20:28:43.043Z,92.85
2023-01-15T20:31:18.870Z,92.92
2023-01-15T20:33:47.312Z,92.64
2023-01-15T20:36:15.149Z,92.53
2023-01-15T20:38:42.415Z,92.88
2023-01-15T20:41:29.932Z,92.94
2023-01-15T20:44:15.513Z,93.26
2023-01-15T20:46:42.609Z,93.71
2023-01-15T20:49:29.026Z,93.53
2023-01-15T20:51:57.097Z,94.00
2023-01-15T20:54:26.101Z,93.99
2023-01-15T20:56:53.222Z,93.94
2023-01-15T20:59:20.359Z,94.41
2023-01-15T21:01:47.472Z,93.98
2023-01-15T21:04:14.594Z,94.32
2023-01-15T21:06:41.675Z,94.62
2023-01-15T21:09:08.713Z,94.70
2023-01-15T21:11:35.775Z,94.72
2023-01-15T21:14:02.773Z,94.23
2023-01-15T21:16:29.887Z,94.30
2023-01-15T21:18:59.094Z,93.86
2023-01-15T21:21:26.177Z,93.88
2023-01-15T21:23:53.227Z,93.28
2023-01-15T21:26:20.300Z,93.07
2023-01-15T21:28:47.485Z,93.31
2023-01-15T21:31:14.967Z,92.73
2023-01-15T21:33:42.000Z,92.54
2023-01-15T21:36:12.805Z,92.32
2023-01-15T21:38:40.181Z,91.93
2023-01-15T21:41:15.684Z,91.51
2023-01-15T21:44:02.451Z,91.70
2023-01-15T21:46:29.911Z,91.27
2023-01-15T21:48:58.709Z,91.07
2023-01-15T21:51:26.822Z,90.49
2023-01-15T21:53:54.182Z,90.58
2023-01-15T21:56:21.325Z,90.98
2023-01-15T21:58:48.381Z,90.56
2023-01-15T22:01:18.225Z,89.97
2023-01-15T22:03:46.027Z,90.18
2023-01-15T22:06:13.213Z,90.03
2023-01-15T22:08:40.391Z,89.77
2023-01-15T22:11:10.491Z,88.53
2023-01-15T22:13:40.428Z,89.00
2023-01-15T22:16:08.948Z,88.67
2023-01-15T22:18:36.165Z,88.56
2023-01-15T22:21:07.110Z,88.72
2023-01-15T22:23:34.953Z,88.69
2023-01-15T22:26:02.147Z,88.75
2023-01-15T22:28:29.157Z,88.78
2023-01-15T22:30:56.345Z,88.96
2023-01-15T22:33:23.532Z,88.73
2023-01-15T22:36:00.114Z,88.75
2023-01-15T22:38:27.398Z,88.46
2023-01-15T22:40:54.420Z,88.25
2023-01-15T22:43:21.485Z,88.20
2023-01-15T22:45:48.609Z,88.58
2023-01-15T22:48:15.853Z,88.48
2023-01-15T22:50:42.950Z,87.91
2023-01-15T22:53:09.949Z,87.96
2023-01-15T22:55:36.965Z,88.15
2023-01-15T22:58:04.003Z,88.33
2023-01-15T23:00:31.167Z,88.48
2023-01-15T23:03:05.179Z,88.21
2023-01-15T23:05:41.081Z,88.70
2023-01-15T23:08:08.112Z,88.23
2023-01-15T23:10:35.091Z,88.63
2023-01-15T23:13:02.271Z,88.41
2023-01-15T23:15:29.560Z,88.12
2023-01-15T23:17:56.590Z,87.86
2023-01-15T23:20:23.572Z,87.68
2023-01-15T23:22:50.555Z,87.32
2023-01-15T23:25:17.672Z,87.00
2023-01-15T23:27:44.674Z,87.49
2023-01-15T23:30:12.435Z,87.34
2023-01-15T23:32:39.883Z,87.32
2023-01-15T23:35:08.818Z,87.08
2023-01-15T23:37:35.812Z,86.97
2023-01-15T23:40:02.938Z,87.05
2023-01-15T23:42:48.759Z,86.67
2023-01-15T23:45:34.352Z,86.57
2023-01-15T23:48:01.617Z,86.34
2023-01-15T23:50:28.681Z,86.06
2023-01-15T23:52:55.659Z,86.34
2023-01-15T23:55:22.872Z,86.53
2023-01-15T23:57:49.888Z,86.60
